sensor_id;sensor_type;location;lat;lon;timestamp;P1;durP1;ratioP1;P2;durP2;ratioP2
22995;SDS011;11664;49.774;8.650;2023-01-15T00:00:39;7.68;;;7.30;;
22995;SDS011;11664;49.774;8.650;2023-01-15T00:03:05;6.47;;;6.18;;
22995;SDS011;11664;49.774;8.650;2023-01-15T00:05:34;6.53;;;6.20;;
22995;SDS011;11664;49.774;8.650;2023-01-15T00:08:00;6.38;;;6.07;;
22995;SDS011;11664;49.774;8.650;2023-01-15T00:10:26;4.75;;;4.55;;
22995;SDS011;11664;49.774;8.650;2023-01-15T00:12:52;5.07;;;4.72;;
22995;SDS011;11664;49.774;8.650;2023-01-15T00:15:18;5.40;;;5.00;;
22995;SDS011;11664;49.774;8.650;2023-01-15T00:17:43;6.47;;;6.00;;
22995;SDS011;11664;49.774;8.650;2023-01-15T00:20:10;14.13;;;13.45;;
22995;SDS011;11664;49.774;8.650;2023-01-15T00:22:36;9.18;;;8.68;;
22995;SDS011;11664;49.774;8.650;2023-01-15T00:25:02;4.93;;;4.63;;
22995;SDS011;11664;49.774;8.650;2023-01-15T00:27:46;4.65;;;4.35;;
22995;SDS011;11664;49.774;8.650;2023-01-15T00:30:13;4.95;;;4.50;;
22995;SDS011;11664;49.774;8.650;2023-01-15T00:32:40;4.32;;;4.13;;
22995;SDS011;11664;49.774;8.650;2023-01-15T00:35:06;5.35;;;5.15;;
22995;SDS011;11664;49.774;8.650;2023-01-15T00:37:35;7.60;;;7.20;;
22995;SDS011;11664;49.774;8.650;2023-01-15T00:40:01;5.30;;;5.05;;
22995;SDS011;11664;49.774;8.650;2023-01-15T00:42:27;4.32;;;4.13;;
22995;SDS011;11664;49.774;8.650;2023-01-15T00:44:53;4.85;;;4.20;;
22995;SDS011;11664;49.774;8.650;2023-01-15T00:47:18;5.57;;;5.28;;
22995;SDS011;11664;49.774;8.650;2023-01-15T00:49:44;5.75;;;5.45;;
22995;SDS011;11664;49.774;8.650;2023-01-15T00:52:10;5.35;;;5.15;;
22995;SDS011;11664;49.774;8.650;2023-01-15T00:54:36;5.80;;;5.50;;
22995;SDS011;11664;49.774;8.650;2023-01-15T00:57:02;5.07;;;4.88;;
22995;SDS011;11664;49.774;8.650;2023-01-15T00:59:28;6.15;;;5.85;;
22995;SDS011;11664;49.774;8.650;2023-01-15T01:01:54;5.45;;;5.22;;
22995;SDS011;11664;49.774;8.650;2023-01-15T01:04:19;5.22;;;5.03;;
22995;SDS011;11664;49.774;8.650;2023-01-15T01:06:45;5.00;;;4.53;;
22995;SDS011;11664;49.774;8.650;2023-01-15T01:09:14;6.10;;;5.80;;
22995;SDS011;11664;49.774;8.650;2023-01-15T01:11:40;6.45;;;6.05;;
22995;SDS011;11664;49.774;8.650;2023-01-15T01:14:06;4.60;;;4.40;;
22995;SDS011;11664;49.774;8.650;2023-01-15T01:16:35;3.83;;;3.63;;
22995;SDS011;11664;49.774;8.650;2023-01-15T01:19:06;4.10;;;3.90;;
22995;SDS011;11664;49.774;8.650;2023-01-15T01:21:43;8.60;;;8.20;;
22995;SDS011;11664;49.774;8.650;2023-01-15T01:24:10;9.05;;;8.65;;
22995;SDS011;11664;49.774;8.650;2023-01-15T01:26:36;6.00;;;5.57;;
22995;SDS011;11664;49.774;8.650;2023-01-15T01:29:02;7.28;;;6.95;;
22995;SDS011;11664;49.774;8.650;2023-01-15T01:31:28;5.55;;;5.28;;
22995;SDS011;11664;49.774;8.650;2023-01-15T01:33:55;6.90;;;6.57;;
22995;SDS011;11664;49.774;8.650;2023-01-15T01:36:26;12.05;;;11.45;;
22995;SDS011;11664;49.774;8.650;2023-01-15T01:38:52;6.68;;;6.38;;
22995;SDS011;11664;49.774;8.650;2023-01-15T01:41:18;4.28;;;4.07;;
22995;SDS011;11664;49.774;8.650;2023-01-15T01:43:58;6.50;;;6.20;;
22995;SDS011;11664;49.774;8.650;2023-01-15T01:46:25;10.48;;;9.88;;
22995;SDS011;11664;49.774;8.650;2023-01-15T01:48:53;8.45;;;8.05;;
22995;SDS011;11664;49.774;8.650;2023-01-15T01:51:20;6.93;;;6.57;;
22995;SDS011;11664;49.774;8.650;2023-01-15T01:53:47;8.95;;;8.48;;
22995;SDS011;11664;49.774;8.650;2023-01-15T01:56:13;4.40;;;4.20;;
22995;SDS011;11664;49.774;8.650;2023-01-15T01:58:41;3.22;;;3.03;;
22995;SDS011;11664;49.774;8.650;2023-01-15T02:01:08;4.88;;;4.68;;
22995;SDS011;11664;49.774;8.650;2023-01-15T02:03:34;5.68;;;5.43;;
22995;SDS011;11664;49.774;8.650;2023-01-15T02:06:02;7.30;;;6.80;;
22995;SDS011;11664;49.774;8.650;2023-01-15T02:08:28;4.03;;;3.83;;
22995;SDS011;11664;49.774;8.650;2023-01-15T02:10:56;8.02;;;7.63;;
22995;SDS011;11664;49.774;8.650;2023-01-15T02:18:28;18.58;;;17.38;;
22995;SDS011;11664;49.774;8.650;2023-01-15T02:21:00;35.40;;;33.53;;
22995;SDS011;11664;49.774;8.650;2023-01-15T02:23:37;14.98;;;14.25;;
22995;SDS011;11664;49.774;8.650;2023-01-15T02:28:54;76.07;;;71.85;;
22995;SDS011;11664;49.774;8.650;2023-01-15T02:31:29;18.85;;;17.88;;
22995;SDS011;11664;49.774;8.650;2023-01-15T02:34:00;5.10;;;4.88;;
22995;SDS011;11664;49.774;8.650;2023-01-15T02:36:29;8.88;;;8.48;;
22995;SDS011;11664;49.774;8.650;2023-01-15T02:38:57;6.55;;;6.25;;
22995;SDS011;11664;49.774;8.650;2023-01-15T02:41:27;7.15;;;6.85;;
22995;SDS011;11664;49.774;8.650;2023-01-15T02:43:55;4.40;;;4.15;;
22995;SDS011;11664;49.774;8.650;2023-01-15T02:46:23;10.95;;;10.45;;
22995;SDS011;11664;49.774;8.650;2023-01-15T02:48:52;12.35;;;11.77;;
22995;SDS011;11664;49.774;8.650;2023-01-15T02:51:21;19.17;;;18.25;;
22995;SDS011;11664;49.774;8.650;2023-01-15T02:53:48;18.50;;;17.58;;
22995;SDS011;11664;49.774;8.650;2023-01-15T02:56:17;11.45;;;10.85;;
22995;SDS011;11664;49.774;8.650;2023-01-15T02:58:44;8.38;;;8.00;;
22995;SDS011;11664;49.774;8.650;2023-01-15T03:01:12;8.45;;;7.95;;
22995;SDS011;11664;49.774;8.650;2023-01-15T03:03:57;9.07;;;8.68;;
22995;SDS011;11664;49.774;8.650;2023-01-15T03:08:56;9.07;;;8.68;;
22995;SDS011;11664;49.774;8.650;2023-01-15T03:11:22;10.25;;;9.75;;
22995;SDS011;11664;49.774;8.650;2023-01-15T03:16:23;6.20;;;5.90;;
22995;SDS011;11664;49.774;8.650;2023-01-15T03:19:21;19.63;;;18.67;;
22995;SDS011;11664;49.774;8.650;2023-01-15T03:21:54;23.55;;;22.30;;
22995;SDS011;11664;49.774;8.650;2023-01-15T03:25:04;39.65;;;37.70;;
22995;SDS011;11664;49.774;8.650;2023-01-15T03:27:10;36.53;;;34.67;;
22995;SDS011;11664;49.774;8.650;2023-01-15T03:29:47;32.30;;;30.52;;
22995;SDS011;11664;49.774;8.650;2023-01-15T03:32:13;20.55;;;19.52;;
22995;SDS011;11664;49.774;8.650;2023-01-15T03:34:44;22.38;;;21.08;;
22995;SDS011;11664;49.774;8.650;2023-01-15T03:37:11;30.70;;;29.15;;
22995;SDS011;11664;49.774;8.650;2023-01-15T03:39:37;35.25;;;33.42;;
22995;SDS011;11664;49.774;8.650;2023-01-15T03:42:19;12.73;;;12.10;;
22995;SDS011;11664;49.774;8.650;2023-01-15T03:57:31;12.23;;;11.52;;
22995;SDS011;11664;49.774;8.650;2023-01-15T04:00:00;16.10;;;15.30;;
22995;SDS011;11664;49.774;8.650;2023-01-15T04:02:26;20.05;;;19.00;;
22995;SDS011;11664;49.774;8.650;2023-01-15T04:04:53;16.02;;;15.27;;
22995;SDS011;11664;49.774;8.650;2023-01-15T04:07:22;16.52;;;15.68;;
22995;SDS011;11664;49.774;8.650;2023-01-15T04:09:49;14.77;;;14.00;;
22995;SDS011;11664;49.774;8.650;2023-01-15T04:12:15;15.32;;;14.63;;
22995;SDS011;11664;49.774;8.650;2023-01-15T04:17:17;17.85;;;16.98;;
22995;SDS011;11664;49.774;8.650;2023-01-15T04:19:43;9.75;;;9.27;;
22995;SDS011;11664;49.774;8.650;2023-01-15T04:22:09;19.00;;;18.05;;
22995;SDS011;11664;49.774;8.650;2023-01-15T04:24:36;7.35;;;6.93;;
22995;SDS011;11664;49.774;8.650;2023-01-15T04:27:02;4.38;;;4.07;;
22995;SDS011;11664;49.774;8.650;2023-01-15T04:29:28;4.75;;;4.55;;
22995;SDS011;11664;49.774;8.650;2023-01-15T04:31:54;8.25;;;7.85;;
22995;SDS011;11664;49.774;8.650;2023-01-15T04:34:23;4.63;;;4.43;;
22995;SDS011;11664;49.774;8.650;2023-01-15T04:36:49;9.18;;;8.63;;
22995;SDS011;11664;49.774;8.650;2023-01-15T04:39:15;5.60;;;5.30;;
22995;SDS011;11664;49.774;8.650;2023-01-15T04:41:41;6.63;;;6.32;;
22995;SDS011;11664;49.774;8.650;2023-01-15T04:44:25;6.22;;;5.93;;
22995;SDS011;11664;49.774;8.650;2023-01-15T04:46:53;5.03;;;4.80;;
22995;SDS011;11664;49.774;8.650;2023-01-15T04:49:21;12.20;;;11.65;;
22995;SDS011;11664;49.774;8.650;2023-01-15T04:51:47;5.93;;;5.68;;
22995;SDS011;11664;49.774;8.650;2023-01-15T04:54:13;4.53;;;4.32;;
22995;SDS011;11664;49.774;8.650;2023-01-15T04:56:41;9.82;;;9.43;;
22995;SDS011;11664;49.774;8.650;2023-01-15T04:59:07;4.45;;;4.25;;
22995;SDS011;11664;49.774;8.650;2023-01-15T05:01:34;5.43;;;5.22;;
22995;SDS011;11664;49.774;8.650;2023-01-15T05:04:00;6.50;;;6.20;;
22995;SDS011;11664;49.774;8.650;2023-01-15T05:06:26;5.55;;;5.35;;
22995;SDS011;11664;49.774;8.650;2023-01-15T05:08:52;5.75;;;5.53;;
22995;SDS011;11664;49.774;8.650;2023-01-15T05:11:19;3.65;;;3.55;;
22995;SDS011;11664;49.774;8.650;2023-01-15T05:13:45;5.93;;;5.68;;
22995;SDS011;11664;49.774;8.650;2023-01-15T05:18:37;5.25;;;5.05;;
22995;SDS011;11664;49.774;8.650;2023-01-15T05:21:03;4.22;;;4.05;;
22995;SDS011;11664;49.774;8.650;2023-01-15T05:23:29;4.07;;;3.90;;
22995;SDS011;11664;49.774;8.650;2023-01-15T05:25:55;6.13;;;5.82;;
22995;SDS011;11664;49.774;8.650;2023-01-15T05:28:21;3.85;;;3.75;;
22995;SDS011;11664;49.774;8.650;2023-01-15T05:30:47;4.13;;;3.95;;
22995;SDS011;11664;49.774;8.650;2023-01-15T05:33:13;4.05;;;3.85;;
22995;SDS011;11664;49.774;8.650;2023-01-15T05:35:39;6.10;;;5.82;;
22995;SDS011;11664;49.774;8.650;2023-01-15T05:38:05;14.07;;;13.40;;
22995;SDS011;11664;49.774;8.650;2023-01-15T05:40:31;6.82;;;6.53;;
22995;SDS011;11664;49.774;8.650;2023-01-15T05:42:57;5.82;;;5.53;;
22995;SDS011;11664;49.774;8.650;2023-01-15T05:45:23;4.03;;;3.83;;
22995;SDS011;11664;49.774;8.650;2023-01-15T05:47:51;4.55;;;4.35;;
22995;SDS011;11664;49.774;8.650;2023-01-15T05:50:17;3.75;;;3.55;;
22995;SDS011;11664;49.774;8.650;2023-01-15T05:52:43;3.85;;;3.75;;
22995;SDS011;11664;49.774;8.650;2023-01-15T05:55:09;3.75;;;3.65;;
22995;SDS011;11664;49.774;8.650;2023-01-15T05:57:35;4.20;;;4.00;;
22995;SDS011;11664;49.774;8.650;2023-01-15T06:00:00;4.03;;;3.83;;
22995;SDS011;11664;49.774;8.650;2023-01-15T06:02:26;3.45;;;3.35;;
22995;SDS011;11664;49.774;8.650;2023-01-15T06:04:52;4.97;;;4.78;;
22995;SDS011;11664;49.774;8.650;2023-01-15T06:07:17;3.95;;;3.75;;
22995;SDS011;11664;49.774;8.650;2023-01-15T06:09:43;4.55;;;4.35;;
22995;SDS011;11664;49.774;8.650;2023-01-15T06:12:09;4.15;;;3.97;;
22995;SDS011;11664;49.774;8.650;2023-01-15T06:14:34;12.68;;;12.07;;
22995;SDS011;11664;49.774;8.650;2023-01-15T06:17:00;6.07;;;5.78;;
22995;SDS011;11664;49.774;8.650;2023-01-15T06:19:25;6.53;;;6.22;;
22995;SDS011;11664;49.774;8.650;2023-01-15T06:21:51;17.42;;;16.60;;
22995;SDS011;11664;49.774;8.650;2023-01-15T06:24:17;8.23;;;7.82;;
22995;SDS011;11664;49.774;8.650;2023-01-15T06:26:44;4.93;;;4.72;;
22995;SDS011;11664;49.774;8.650;2023-01-15T06:29:10;4.22;;;4.03;;
22995;SDS011;11664;49.774;8.650;2023-01-15T06:31:37;7.43;;;7.13;;
22995;SDS011;11664;49.774;8.650;2023-01-15T06:34:02;9.18;;;8.77;;
22995;SDS011;11664;49.774;8.650;2023-01-15T06:36:28;5.38;;;5.18;;
22995;SDS011;11664;49.774;8.650;2023-01-15T06:38:53;4.65;;;4.20;;
22995;SDS011;11664;49.774;8.650;2023-01-15T06:41:20;6.28;;;6.00;;
22995;SDS011;11664;49.774;8.650;2023-01-15T06:44:05;4.13;;;3.92;;
22995;SDS011;11664;49.774;8.650;2023-01-15T06:46:53;6.15;;;5.85;;
22995;SDS011;11664;49.774;8.650;2023-01-15T06:49:37;5.10;;;4.90;;
22995;SDS011;11664;49.774;8.650;2023-01-15T06:52:03;6.32;;;6.03;;
22995;SDS011;11664;49.774;8.650;2023-01-15T06:54:30;9.10;;;8.70;;
22995;SDS011;11664;49.774;8.650;2023-01-15T06:56:56;6.80;;;6.32;;
22995;SDS011;11664;49.774;8.650;2023-01-15T06:59:21;10.98;;;10.48;;
22995;SDS011;11664;49.774;8.650;2023-01-15T07:01:47;4.10;;;3.90;;
22995;SDS011;11664;49.774;8.650;2023-01-15T07:04:13;5.38;;;5.18;;
22995;SDS011;11664;49.774;8.650;2023-01-15T07:06:39;7.18;;;6.88;;
22995;SDS011;11664;49.774;8.650;2023-01-15T07:09:05;7.53;;;7.20;;
22995;SDS011;11664;49.774;8.650;2023-01-15T07:11:30;8.68;;;8.27;;
22995;SDS011;11664;49.774;8.650;2023-01-15T07:13:56;12.50;;;11.90;;
22995;SDS011;11664;49.774;8.650;2023-01-15T07:16:34;14.88;;;14.18;;
22995;SDS011;11664;49.774;8.650;2023-01-15T07:19:01;6.55;;;6.25;;
22995;SDS011;11664;49.774;8.650;2023-01-15T07:21:27;12.80;;;12.18;;
22995;SDS011;11664;49.774;8.650;2023-01-15T07:23:53;26.25;;;24.90;;
22995;SDS011;11664;49.774;8.650;2023-01-15T07:26:19;18.98;;;18.00;;
22995;SDS011;11664;49.774;8.650;2023-01-15T07:28:44;32.25;;;30.55;;
22995;SDS011;11664;49.774;8.650;2023-01-15T07:31:10;25.95;;;24.65;;
22995;SDS011;11664;49.774;8.650;2023-01-15T07:33:36;18.40;;;17.42;;
22995;SDS011;11664;49.774;8.650;2023-01-15T07:36:01;12.18;;;11.57;;
22995;SDS011;11664;49.774;8.650;2023-01-15T07:38:28;8.68;;;8.18;;
22995;SDS011;11664;49.774;8.650;2023-01-15T07:40:58;9.40;;;8.80;;
22995;SDS011;11664;49.774;8.650;2023-01-15T07:43:42;7.25;;;6.85;;
22995;SDS011;11664;49.774;8.650;2023-01-15T07:46:26;9.75;;;9.25;;
22995;SDS011;11664;49.774;8.650;2023-01-15T07:49:11;9.38;;;8.77;;
22995;SDS011;11664;49.774;8.650;2023-01-15T07:51:55;10.45;;;9.80;;
22995;SDS011;11664;49.774;8.650;2023-01-15T07:54:21;12.90;;;12.20;;
22995;SDS011;11664;49.774;8.650;2023-01-15T07:56:46;9.80;;;9.27;;
22995;SDS011;11664;49.774;8.650;2023-01-15T07:59:12;10.00;;;9.40;;
22995;SDS011;11664;49.774;8.650;2023-01-15T08:01:38;8.57;;;8.10;;
22995;SDS011;11664;49.774;8.650;2023-01-15T08:04:04;6.43;;;5.97;;
22995;SDS011;11664;49.774;8.650;2023-01-15T08:06:29;11.75;;;11.07;;
22995;SDS011;11664;49.774;8.650;2023-01-15T08:08:55;8.68;;;8.25;;
22995;SDS011;11664;49.774;8.650;2023-01-15T08:11:20;9.65;;;9.05;;
22995;SDS011;11664;49.774;8.650;2023-01-15T08:14:04;7.57;;;7.18;;
22995;SDS011;11664;49.774;8.650;2023-01-15T08:16:48;5.82;;;5.53;;
22995;SDS011;11664;49.774;8.650;2023-01-15T08:19:14;17.48;;;16.63;;
22995;SDS011;11664;49.774;8.650;2023-01-15T08:21:39;8.98;;;8.57;;
22995;SDS011;11664;49.774;8.650;2023-01-15T08:24:05;12.00;;;11.40;;
22995;SDS011;11664;49.774;8.650;2023-01-15T08:26:31;10.63;;;10.07;;
22995;SDS011;11664;49.774;8.650;2023-01-15T08:28:56;4.95;;;4.75;;
22995;SDS011;11664;49.774;8.650;2023-01-15T08:31:23;7.80;;;7.43;;
22995;SDS011;11664;49.774;8.650;2023-01-15T08:33:48;10.05;;;9.55;;
22995;SDS011;11664;49.774;8.650;2023-01-15T08:36:14;14.57;;;13.88;;
22995;SDS011;11664;49.774;8.650;2023-01-15T08:38:40;10.10;;;9.60;;
22995;SDS011;11664;49.774;8.650;2023-01-15T08:41:06;7.32;;;6.93;;
22995;SDS011;11664;49.774;8.650;2023-01-15T08:43:31;9.15;;;8.73;;
22995;SDS011;11664;49.774;8.650;2023-01-15T08:45:58;8.43;;;7.95;;
22995;SDS011;11664;49.774;8.650;2023-01-15T08:48:25;8.32;;;7.93;;
22995;SDS011;11664;49.774;8.650;2023-01-15T08:50:51;6.47;;;6.18;;
22995;SDS011;11664;49.774;8.650;2023-01-15T08:53:17;8.10;;;7.75;;
22995;SDS011;11664;49.774;8.650;2023-01-15T08:55:43;7.30;;;6.95;;
22995;SDS011;11664;49.774;8.650;2023-01-15T08:58:09;6.20;;;5.90;;
22995;SDS011;11664;49.774;8.650;2023-01-15T09:00:35;5.07;;;4.35;;
22995;SDS011;11664;49.774;8.650;2023-01-15T09:03:00;5.60;;;5.30;;
22995;SDS011;11664;49.774;8.650;2023-01-15T09:05:26;4.72;;;4.43;;
22995;SDS011;11664;49.774;8.650;2023-01-15T09:07:54;4.55;;;4.35;;
22995;SDS011;11664;49.774;8.650;2023-01-15T09:10:20;4.78;;;4.57;;
22995;SDS011;11664;49.774;8.650;2023-01-15T09:12:46;5.20;;;4.90;;
22995;SDS011;11664;49.774;8.650;2023-01-15T09:15:13;4.35;;;4.15;;
22995;SDS011;11664;49.774;8.650;2023-01-15T09:17:38;4.38;;;4.15;;
22995;SDS011;11664;49.774;8.650;2023-01-15T09:20:06;8.70;;;8.23;;
22995;SDS011;11664;49.774;8.650;2023-01-15T09:22:33;6.63;;;6.32;;
22995;SDS011;11664;49.774;8.650;2023-01-15T09:24:59;5.40;;;5.10;;
22995;SDS011;11664;49.774;8.650;2023-01-15T09:27:25;6.25;;;5.95;;
22995;SDS011;11664;49.774;8.650;2023-01-15T09:29:51;6.15;;;5.85;;
22995;SDS011;11664;49.774;8.650;2023-01-15T09:32:17;5.05;;;4.85;;
22995;SDS011;11664;49.774;8.650;2023-01-15T09:34:43;6.50;;;6.10;;
22995;SDS011;11664;49.774;8.650;2023-01-15T09:37:08;5.70;;;5.18;;
22995;SDS011;11664;49.774;8.650;2023-01-15T09:39:35;4.00;;;3.70;;
22995;SDS011;11664;49.774;8.650;2023-01-15T09:52:32;6.55;;;6.25;;
22995;SDS011;11664;49.774;8.650;2023-01-15T09:55:19;7.72;;;7.28;;
22995;SDS011;11664;49.774;8.650;2023-01-15T09:57:53;6.65;;;6.32;;
22995;SDS011;11664;49.774;8.650;2023-01-15T10:00:22;8.55;;;8.15;;
22995;SDS011;11664;49.774;8.650;2023-01-15T10:02:52;6.90;;;6.55;;
22995;SDS011;11664;49.774;8.650;2023-01-15T10:05:41;5.45;;;5.15;;
22995;SDS011;11664;49.774;8.650;2023-01-15T10:08:15;6.82;;;6.50;;
22995;SDS011;11664;49.774;8.650;2023-01-15T10:10:55;7.32;;;6.93;;
22995;SDS011;11664;49.774;8.650;2023-01-15T10:13:29;8.27;;;7.78;;
22995;SDS011;11664;49.774;8.650;2023-01-15T10:15:58;6.10;;;5.80;;
22995;SDS011;11664;49.774;8.650;2023-01-15T10:18:25;7.18;;;6.78;;
22995;SDS011;11664;49.774;8.650;2023-01-15T10:26:35;12.13;;;11.43;;
22995;SDS011;11664;49.774;8.650;2023-01-15T10:29:11;8.00;;;7.50;;
22995;SDS011;11664;49.774;8.650;2023-01-15T10:31:42;8.77;;;8.32;;
22995;SDS011;11664;49.774;8.650;2023-01-15T10:36:57;4.75;;;4.45;;
22995;SDS011;11664;49.774;8.650;2023-01-15T10:39:45;5.32;;;5.00;;
22995;SDS011;11664;49.774;8.650;2023-01-15T10:42:36;4.80;;;4.50;;
22995;SDS011;11664;49.774;8.650;2023-01-15T10:45:19;5.53;;;5.07;;
22995;SDS011;11664;49.774;8.650;2023-01-15T10:48:38;6.55;;;6.22;;
22995;SDS011;11664;49.774;8.650;2023-01-15T10:50:54;5.50;;;5.22;;
22995;SDS011;11664;49.774;8.650;2023-01-15T10:53:43;7.00;;;6.60;;
22995;SDS011;11664;49.774;8.650;2023-01-15T10:56:36;4.50;;;4.30;;
22995;SDS011;11664;49.774;8.650;2023-01-15T10:59:24;3.05;;;2.92;;
22995;SDS011;11664;49.774;8.650;2023-01-15T11:02:02;3.80;;;3.60;;
22995;SDS011;11664;49.774;8.650;2023-01-15T11:04:43;7.63;;;6.95;;
22995;SDS011;11664;49.774;8.650;2023-01-15T11:07:10;5.22;;;5.03;;
22995;SDS011;11664;49.774;8.650;2023-01-15T11:09:38;3.78;;;3.58;;
22995;SDS011;11664;49.774;8.650;2023-01-15T11:12:25;4.75;;;3.35;;
22995;SDS011;11664;49.774;8.650;2023-01-15T11:15:15;3.92;;;3.60;;
22995;SDS011;11664;49.774;8.650;2023-01-15T11:18:07;5.38;;;5.18;;
22995;SDS011;11664;49.774;8.650;2023-01-15T11:21:01;3.78;;;3.65;;
22995;SDS011;11664;49.774;8.650;2023-01-15T11:23:27;6.68;;;3.65;;
22995;SDS011;11664;49.774;8.650;2023-01-15T11:25:59;3.53;;;3.33;;
22995;SDS011;11664;49.774;8.650;2023-01-15T11:28:35;3.70;;;3.50;;
22995;SDS011;11664;49.774;8.650;2023-01-15T11:31:07;4.95;;;4.75;;
22995;SDS011;11664;49.774;8.650;2023-01-15T11:33:34;4.55;;;4.00;;
22995;SDS011;11664;49.774;8.650;2023-01-15T11:36:03;4.15;;;3.95;;
22995;SDS011;11664;49.774;8.650;2023-01-15T11:38:41;4.40;;;4.20;;
22995;SDS011;11664;49.774;8.650;2023-01-15T11:41:18;4.20;;;4.00;;
22995;SDS011;11664;49.774;8.650;2023-01-15T11:44:11;4.00;;;3.80;;
22995;SDS011;11664;49.774;8.650;2023-01-15T11:46:56;4.18;;;3.92;;
22995;SDS011;11664;49.774;8.650;2023-01-15T11:49:48;2.78;;;2.67;;
22995;SDS011;11664;49.774;8.650;2023-01-15T11:52:45;4.65;;;2.72;;
22995;SDS011;11664;49.774;8.650;2023-01-15T11:55:16;3.08;;;2.97;;
22995;SDS011;11664;49.774;8.650;2023-01-15T11:57:45;4.30;;;3.90;;
22995;SDS011;11664;49.774;8.650;2023-01-15T12:00:31;4.40;;;4.20;;
22995;SDS011;11664;49.774;8.650;2023-01-15T12:03:02;4.45;;;4.25;;
22995;SDS011;11664;49.774;8.650;2023-01-15T12:05:44;4.15;;;3.95;;
22995;SDS011;11664;49.774;8.650;2023-01-15T12:08:26;5.65;;;3.63;;
22995;SDS011;11664;49.774;8.650;2023-01-15T12:16:32;3.42;;;3.22;;
22995;SDS011;11664;49.774;8.650;2023-01-15T12:19:24;3.65;;;3.45;;
22995;SDS011;11664;49.774;8.650;2023-01-15T12:30:57;4.15;;;3.95;;
22995;SDS011;11664;49.774;8.650;2023-01-15T12:36:18;8.00;;;7.60;;
22995;SDS011;11664;49.774;8.650;2023-01-15T12:38:47;3.58;;;3.38;;
22995;SDS011;11664;49.774;8.650;2023-01-15T12:41:33;4.43;;;4.18;;
22995;SDS011;11664;49.774;8.650;2023-01-15T12:44:44;3.85;;;3.65;;
22995;SDS011;11664;49.774;8.650;2023-01-15T12:47:27;3.88;;;3.67;;
22995;SDS011;11664;49.774;8.650;2023-01-15T12:49:58;3.97;;;3.78;;
22995;SDS011;11664;49.774;8.650;2023-01-15T12:52:34;4.78;;;4.18;;
22995;SDS011;11664;49.774;8.650;2023-01-15T12:55:08;4.25;;;4.03;;
22995;SDS011;11664;49.774;8.650;2023-01-15T13:00:04;4.82;;;4.60;;
22995;SDS011;11664;49.774;8.650;2023-01-15T13:02:37;6.60;;;5.63;;
22995;SDS011;11664;49.774;8.650;2023-01-15T13:05:19;4.43;;;4.00;;
22995;SDS011;11664;49.774;8.650;2023-01-15T13:08:18;4.70;;;4.40;;
22995;SDS011;11664;49.774;8.650;2023-01-15T13:10:56;4.05;;;3.85;;
22995;SDS011;11664;49.774;8.650;2023-01-15T13:13:23;3.28;;;3.17;;
22995;SDS011;11664;49.774;8.650;2023-01-15T13:18:19;3.53;;;3.33;;
22995;SDS011;11664;49.774;8.650;2023-01-15T13:20:50;3.92;;;3.47;;
22995;SDS011;11664;49.774;8.650;2023-01-15T13:23:21;3.60;;;3.40;;
22995;SDS011;11664;49.774;8.650;2023-01-15T13:25:55;3.00;;;2.90;;
22995;SDS011;11664;49.774;8.650;2023-01-15T13:31:02;3.33;;;3.22;;
22995;SDS011;11664;49.774;8.650;2023-01-15T13:33:38;3.67;;;3.47;;
22995;SDS011;11664;49.774;8.650;2023-01-15T13:36:12;3.65;;;3.45;;
22995;SDS011;11664;49.774;8.650;2023-01-15T13:38:43;4.15;;;3.95;;
22995;SDS011;11664;49.774;8.650;2023-01-15T13:41:17;6.80;;;3.65;;
22995;SDS011;11664;49.774;8.650;2023-01-15T13:44:16;2.97;;;2.88;;
22995;SDS011;11664;49.774;8.650;2023-01-15T13:46:57;3.72;;;3.53;;
22995;SDS011;11664;49.774;8.650;2023-01-15T13:49:28;3.90;;;3.70;;
22995;SDS011;11664;49.774;8.650;2023-01-15T13:54:28;5.03;;;4.78;;
22995;SDS011;11664;49.774;8.650;2023-01-15T13:59:48;6.07;;;5.45;;
22995;SDS011;11664;49.774;8.650;2023-01-15T14:04:46;5.15;;;4.68;;
22995;SDS011;11664;49.774;8.650;2023-01-15T14:07:17;3.80;;;3.60;;
22995;SDS011;11664;49.774;8.650;2023-01-15T14:09:43;4.13;;;3.85;;
22995;SDS011;11664;49.774;8.650;2023-01-15T14:20:37;4.00;;;3.80;;
22995;SDS011;11664;49.774;8.650;2023-01-15T14:31:33;4.38;;;3.40;;
22995;SDS011;11664;49.774;8.650;2023-01-15T14:34:10;3.40;;;3.20;;
22995;SDS011;11664;49.774;8.650;2023-01-15T14:36:53;3.33;;;3.13;;
22995;SDS011;11664;49.774;8.650;2023-01-15T14:42:00;2.92;;;2.83;;
22995;SDS011;11664;49.774;8.650;2023-01-15T14:45:16;4.70;;;3.58;;
22995;SDS011;11664;49.774;8.650;2023-01-15T14:47:51;6.30;;;3.30;;
22995;SDS011;11664;49.774;8.650;2023-01-15T14:52:58;4.90;;;3.35;;
22995;SDS011;11664;49.774;8.650;2023-01-15T14:55:38;5.18;;;4.10;;
22995;SDS011;11664;49.774;8.650;2023-01-15T14:58:33;3.97;;;3.78;;
22995;SDS011;11664;49.774;8.650;2023-01-15T15:01:03;4.03;;;3.63;;
22995;SDS011;11664;49.774;8.650;2023-01-15T15:03:42;5.65;;;3.90;;
22995;SDS011;11664;49.774;8.650;2023-01-15T15:06:20;3.78;;;3.53;;
22995;SDS011;11664;49.774;8.650;2023-01-15T15:08:46;3.85;;;3.40;;
22995;SDS011;11664;49.774;8.650;2023-01-15T15:11:14;4.90;;;4.60;;
22995;SDS011;11664;49.774;8.650;2023-01-15T15:14:04;4.32;;;3.53;;
22995;SDS011;11664;49.774;8.650;2023-01-15T15:16:31;3.42;;;3.33;;
22995;SDS011;11664;49.774;8.650;2023-01-15T15:19:04;4.03;;;3.72;;
22995;SDS011;11664;49.774;8.650;2023-01-15T15:21:39;5.63;;;3.30;;
22995;SDS011;11664;49.774;8.650;2023-01-15T15:26:47;3.53;;;3.30;;
22995;SDS011;11664;49.774;8.650;2023-01-15T15:29:14;3.17;;;3.08;;
22995;SDS011;11664;49.774;8.650;2023-01-15T15:31:42;4.35;;;3.75;;
22995;SDS011;11664;49.774;8.650;2023-01-15T15:34:33;3.28;;;3.08;;
22995;SDS011;11664;49.774;8.650;2023-01-15T15:37:10;11.55;;;3.72;;
22995;SDS011;11664;49.774;8.650;2023-01-15T15:39:42;3.55;;;3.25;;
22995;SDS011;11664;49.774;8.650;2023-01-15T15:42:34;6.15;;;3.00;;
22995;SDS011;11664;49.774;8.650;2023-01-15T15:45:23;3.28;;;3.08;;
22995;SDS011;11664;49.774;8.650;2023-01-15T15:51:22;4.53;;;3.00;;
22995;SDS011;11664;49.774;8.650;2023-01-15T15:53:48;4.57;;;3.47;;
22995;SDS011;11664;49.774;8.650;2023-01-15T15:56:14;4.57;;;4.07;;
22995;SDS011;11664;49.774;8.650;2023-01-15T15:58:40;3.85;;;3.58;;
22995;SDS011;11664;49.774;8.650;2023-01-15T16:01:09;4.47;;;4.05;;
22995;SDS011;11664;49.774;8.650;2023-01-15T16:03:43;3.80;;;3.53;;
22995;SDS011;11664;49.774;8.650;2023-01-15T16:06:23;3.08;;;2.95;;
22995;SDS011;11664;49.774;8.650;2023-01-15T16:08:55;4.32;;;4.03;;
22995;SDS011;11664;49.774;8.650;2023-01-15T16:11:25;3.70;;;3.50;;
22995;SDS011;11664;49.774;8.650;2023-01-15T16:13:52;9.10;;;3.90;;
22995;SDS011;11664;49.774;8.650;2023-01-15T16:16:20;3.58;;;3.38;;
22995;SDS011;11664;49.774;8.650;2023-01-15T16:18:49;3.70;;;3.40;;
22995;SDS011;11664;49.774;8.650;2023-01-15T16:24:00;3.22;;;3.10;;
22995;SDS011;11664;49.774;8.650;2023-01-15T16:26:29;4.63;;;3.08;;
22995;SDS011;11664;49.774;8.650;2023-01-15T16:29:14;4.10;;;3.67;;
22995;SDS011;11664;49.774;8.650;2023-01-15T16:31:43;4.25;;;3.47;;
22995;SDS011;11664;49.774;8.650;2023-01-15T16:34:16;4.70;;;3.45;;
22995;SDS011;11664;49.774;8.650;2023-01-15T16:36:43;11.80;;;11.05;;
22995;SDS011;11664;49.774;8.650;2023-01-15T16:39:20;4.35;;;3.92;;
22995;SDS011;11664;49.774;8.650;2023-01-15T16:41:47;4.03;;;3.83;;
22995;SDS011;11664;49.774;8.650;2023-01-15T16:47:18;4.85;;;4.45;;
22995;SDS011;11664;49.774;8.650;2023-01-15T16:49:50;3.40;;;3.25;;
22995;SDS011;11664;49.774;8.650;2023-01-15T17:00:36;3.92;;;3.72;;
22995;SDS011;11664;49.774;8.650;2023-01-15T17:03:09;4.32;;;3.90;;
22995;SDS011;11664;49.774;8.650;2023-01-15T17:05:37;4.65;;;4.10;;
22995;SDS011;11664;49.774;8.650;2023-01-15T17:08:03;4.97;;;4.68;;
22995;SDS011;11664;49.774;8.650;2023-01-15T17:10:29;6.82;;;4.32;;